sensor_id;sensor_type;location;lat;lon;timestamp;P1;durP1;ratioP1;P2;durP2;ratioP2
58137;SDS011;43955;47.362;18.930;2023-07-30T00:01:49;4.12;;;2.30;;
58137;SDS011;43955;47.362;18.930;2023-07-30T00:04:17;3.65;;;2.22;;
58137;SDS011;43955;47.362;18.930;2023-07-30T00:06:46;5.68;;;2.37;;
58137;SDS011;43955;47.362;18.930;2023-07-30T00:09:13;6.57;;;2.53;;
58137;SDS011;43955;47.362;18.930;2023-07-30T00:11:42;4.53;;;2.28;;
58137;SDS011;43955;47.362;18.930;2023-07-30T00:14:09;4.50;;;2.35;;
58137;SDS011;43955;47.362;18.930;2023-07-30T00:16:38;3.70;;;2.28;;
58137;SDS011;43955;47.362;18.930;2023-07-30T00:19:06;5.40;;;2.33;;
58137;SDS011;43955;47.362;18.930;2023-07-30T00:21:35;4.00;;;2.47;;
58137;SDS011;43955;47.362;18.930;2023-07-30T00:24:05;3.20;;;2.00;;
58137;SDS011;43955;47.362;18.930;2023-07-30T00:26:33;3.95;;;2.08;;
58137;SDS011;43955;47.362;18.930;2023-07-30T00:29:02;3.12;;;1.80;;
58137;SDS011;43955;47.362;18.930;2023-07-30T00:31:29;6.30;;;2.20;;
58137;SDS011;43955;47.362;18.930;2023-07-30T00:33:58;3.80;;;1.83;;
58137;SDS011;43955;47.362;18.930;2023-07-30T00:36:26;3.75;;;1.70;;
58137;SDS011;43955;47.362;18.930;2023-07-30T00:38:53;4.93;;;2.17;;
58137;SDS011;43955;47.362;18.930;2023-07-30T00:41:22;3.10;;;1.67;;
58137;SDS011;43955;47.362;18.930;2023-07-30T00:43:49;3.15;;;1.65;;
58137;SDS011;43955;47.362;18.930;2023-07-30T00:46:17;2.62;;;1.90;;
58137;SDS011;43955;47.362;18.930;2023-07-30T00:48:45;5.72;;;1.70;;
58137;SDS011;43955;47.362;18.930;2023-07-30T00:51:13;2.70;;;1.65;;
58137;SDS011;43955;47.362;18.930;2023-07-30T00:53:41;3.08;;;1.67;;
58137;SDS011;43955;47.362;18.930;2023-07-30T00:56:11;3.53;;;2.10;;
58137;SDS011;43955;47.362;18.930;2023-07-30T00:58:39;4.70;;;2.33;;
58137;SDS011;43955;47.362;18.930;2023-07-30T01:01:08;3.33;;;2.10;;
58137;SDS011;43955;47.362;18.930;2023-07-30T01:03:36;3.17;;;1.83;;
58137;SDS011;43955;47.362;18.930;2023-07-30T01:06:04;3.62;;;1.65;;
58137;SDS011;43955;47.362;18.930;2023-07-30T01:08:32;2.53;;;1.60;;
58137;SDS011;43955;47.362;18.930;2023-07-30T01:11:00;2.62;;;1.67;;
58137;SDS011;43955;47.362;18.930;2023-07-30T01:13:29;2.87;;;1.65;;
58137;SDS011;43955;47.362;18.930;2023-07-30T01:15:56;2.60;;;1.50;;
58137;SDS011;43955;47.362;18.930;2023-07-30T01:18:24;2.62;;;1.42;;
58137;SDS011;43955;47.362;18.930;2023-07-30T01:20:53;2.85;;;1.50;;
58137;SDS011;43955;47.362;18.930;2023-07-30T01:23:20;2.50;;;1.50;;
58137;SDS011;43955;47.362;18.930;2023-07-30T01:25:48;4.32;;;1.85;;
58137;SDS011;43955;47.362;18.930;2023-07-30T01:28:43;2.45;;;1.42;;
58137;SDS011;43955;47.362;18.930;2023-07-30T01:31:14;3.53;;;1.77;;
58137;SDS011;43955;47.362;18.930;2023-07-30T01:33:44;3.05;;;1.58;;
58137;SDS011;43955;47.362;18.930;2023-07-30T01:36:15;3.78;;;1.35;;
58137;SDS011;43955;47.362;18.930;2023-07-30T01:38:43;3.35;;;1.65;;
58137;SDS011;43955;47.362;18.930;2023-07-30T01:41:11;3.28;;;1.50;;
58137;SDS011;43955;47.362;18.930;2023-07-30T01:43:39;2.90;;;1.40;;
58137;SDS011;43955;47.362;18.930;2023-07-30T01:46:07;4.55;;;1.50;;
58137;SDS011;43955;47.362;18.930;2023-07-30T01:48:35;2.47;;;1.62;;
58137;SDS011;43955;47.362;18.930;2023-07-30T01:51:03;3.17;;;1.50;;
58137;SDS011;43955;47.362;18.930;2023-07-30T01:53:31;5.15;;;1.60;;
58137;SDS011;43955;47.362;18.930;2023-07-30T01:55:59;4.93;;;1.60;;
58137;SDS011;43955;47.362;18.930;2023-07-30T01:58:27;2.85;;;1.30;;
58137;SDS011;43955;47.362;18.930;2023-07-30T02:00:55;2.83;;;1.55;;
58137;SDS011;43955;47.362;18.930;2023-07-30T02:03:23;2.58;;;1.62;;
58137;SDS011;43955;47.362;18.930;2023-07-30T02:05:51;2.75;;;1.60;;
58137;SDS011;43955;47.362;18.930;2023-07-30T02:08:19;3.45;;;1.85;;
58137;SDS011;43955;47.362;18.930;2023-07-30T02:10:56;4.18;;;1.45;;
58137;SDS011;43955;47.362;18.930;2023-07-30T02:13:25;2.03;;;1.25;;
58137;SDS011;43955;47.362;18.930;2023-07-30T02:15:53;2.62;;;1.60;;
58137;SDS011;43955;47.362;18.930;2023-07-30T02:18:22;4.95;;;1.60;;
58137;SDS011;43955;47.362;18.930;2023-07-30T02:20:51;4.00;;;1.50;;
58137;SDS011;43955;47.362;18.930;2023-07-30T02:23:19;3.45;;;1.77;;
58137;SDS011;43955;47.362;18.930;2023-07-30T02:25:48;2.62;;;1.50;;
58137;SDS011;43955;47.362;18.930;2023-07-30T02:28:16;2.97;;;1.60;;
58137;SDS011;43955;47.362;18.930;2023-07-30T02:30:44;2.58;;;1.23;;
58137;SDS011;43955;47.362;18.930;2023-07-30T02:33:12;3.35;;;1.50;;
58137;SDS011;43955;47.362;18.930;2023-07-30T02:35:40;4.12;;;1.27;;
58137;SDS011;43955;47.362;18.930;2023-07-30T02:38:07;3.58;;;1.48;;
58137;SDS011;43955;47.362;18.930;2023-07-30T02:40:35;2.92;;;1.50;;
58137;SDS011;43955;47.362;18.930;2023-07-30T02:43:05;2.15;;;1.10;;
58137;SDS011;43955;47.362;18.930;2023-07-30T02:45:32;6.03;;;1.35;;
58137;SDS011;43955;47.362;18.930;2023-07-30T02:48:00;3.33;;;1.45;;
58137;SDS011;43955;47.362;18.930;2023-07-30T02:50:28;2.33;;;1.25;;
58137;SDS011;43955;47.362;18.930;2023-07-30T02:52:56;2.53;;;1.48;;
58137;SDS011;43955;47.362;18.930;2023-07-30T02:55:24;3.47;;;1.33;;
58137;SDS011;43955;47.362;18.930;2023-07-30T02:57:52;3.45;;;1.50;;
58137;SDS011;43955;47.362;18.930;2023-07-30T03:00:21;2.95;;;1.50;;
58137;SDS011;43955;47.362;18.930;2023-07-30T03:02:50;3.45;;;1.48;;
58137;SDS011;43955;47.362;18.930;2023-07-30T03:05:18;2.80;;;1.27;;
58137;SDS011;43955;47.362;18.930;2023-07-30T03:07:46;2.22;;;1.17;;
58137;SDS011;43955;47.362;18.930;2023-07-30T03:10:14;3.40;;;1.42;;
58137;SDS011;43955;47.362;18.930;2023-07-30T03:12:42;2.53;;;1.20;;
58137;SDS011;43955;47.362;18.930;2023-07-30T03:15:10;4.10;;;1.50;;
58137;SDS011;43955;47.362;18.930;2023-07-30T03:17:38;2.40;;;1.60;;
58137;SDS011;43955;47.362;18.930;2023-07-30T03:20:06;3.22;;;1.55;;
58137;SDS011;43955;47.362;18.930;2023-07-30T03:22:35;4.10;;;1.45;;
58137;SDS011;43955;47.362;18.930;2023-07-30T03:25:03;31.85;;;4.50;;
58137;SDS011;43955;47.362;18.930;2023-07-30T03:27:31;4.15;;;1.62;;
58137;SDS011;43955;47.362;18.930;2023-07-30T03:29:59;2.80;;;1.75;;
58137;SDS011;43955;47.362;18.930;2023-07-30T03:32:28;2.47;;;1.37;;
58137;SDS011;43955;47.362;18.930;2023-07-30T03:34:56;2.83;;;1.83;;
58137;SDS011;43955;47.362;18.930;2023-07-30T03:37:24;3.00;;;1.55;;
58137;SDS011;43955;47.362;18.930;2023-07-30T03:39:53;3.40;;;1.73;;
58137;SDS011;43955;47.362;18.930;2023-07-30T03:42:21;4.97;;;1.27;;
58137;SDS011;43955;47.362;18.930;2023-07-30T03:44:49;3.50;;;1.80;;
58137;SDS011;43955;47.362;18.930;2023-07-30T03:47:17;3.17;;;1.80;;
58137;SDS011;43955;47.362;18.930;2023-07-30T03:49:44;3.10;;;1.80;;
58137;SDS011;43955;47.362;18.930;2023-07-30T03:52:12;2.83;;;1.77;;
58137;SDS011;43955;47.362;18.930;2023-07-30T03:54:40;4.45;;;1.87;;
58137;SDS011;43955;47.362;18.930;2023-07-30T03:57:08;2.45;;;1.83;;
58137;SDS011;43955;47.362;18.930;2023-07-30T03:59:35;3.55;;;1.70;;
58137;SDS011;43955;47.362;18.930;2023-07-30T04:02:03;2.62;;;1.70;;
58137;SDS011;43955;47.362;18.930;2023-07-30T04:04:32;3.08;;;1.70;;
58137;SDS011;43955;47.362;18.930;2023-07-30T04:07:00;4.15;;;1.98;;
58137;SDS011;43955;47.362;18.930;2023-07-30T04:09:27;5.28;;;1.90;;
58137;SDS011;43955;47.362;18.930;2023-07-30T04:11:55;3.90;;;2.00;;
58137;SDS011;43955;47.362;18.930;2023-07-30T04:14:24;3.22;;;2.10;;
58137;SDS011;43955;47.362;18.930;2023-07-30T04:16:51;2.85;;;1.83;;
58137;SDS011;43955;47.362;18.930;2023-07-30T04:19:20;4.50;;;2.33;;
58137;SDS011;43955;47.362;18.930;2023-07-30T04:21:48;3.17;;;1.83;;
58137;SDS011;43955;47.362;18.930;2023-07-30T04:24:17;3.22;;;2.08;;
58137;SDS011;43955;47.362;18.930;2023-07-30T04:26:45;4.62;;;2.03;;
58137;SDS011;43955;47.362;18.930;2023-07-30T04:29:13;4.07;;;1.87;;
58137;SDS011;43955;47.362;18.930;2023-07-30T04:31:41;3.45;;;1.83;;
58137;SDS011;43955;47.362;18.930;2023-07-30T04:34:09;3.58;;;2.05;;
58137;SDS011;43955;47.362;18.930;2023-07-30T04:36:37;4.37;;;1.95;;
58137;SDS011;43955;47.362;18.930;2023-07-30T04:39:06;4.90;;;2.30;;
58137;SDS011;43955;47.362;18.930;2023-07-30T04:41:35;3.17;;;1.60;;
58137;SDS011;43955;47.362;18.930;2023-07-30T04:44:04;3.47;;;2.20;;
58137;SDS011;43955;47.362;18.930;2023-07-30T04:46:31;3.90;;;2.10;;
58137;SDS011;43955;47.362;18.930;2023-07-30T04:49:02;5.22;;;2.12;;
58137;SDS011;43955;47.362;18.930;2023-07-30T04:51:31;4.47;;;2.08;;
58137;SDS011;43955;47.362;18.930;2023-07-30T04:53:58;3.92;;;1.98;;
58137;SDS011;43955;47.362;18.930;2023-07-30T04:56:30;3.33;;;1.80;;
58137;SDS011;43955;47.362;18.930;2023-07-30T04:58:57;2.90;;;1.67;;
58137;SDS011;43955;47.362;18.930;2023-07-30T05:01:25;3.30;;;2.03;;
58137;SDS011;43955;47.362;18.930;2023-07-30T05:03:53;3.17;;;1.70;;
58137;SDS011;43955;47.362;18.930;2023-07-30T05:06:21;4.97;;;2.22;;
58137;SDS011;43955;47.362;18.930;2023-07-30T05:08:49;5.00;;;2.17;;
58137;SDS011;43955;47.362;18.930;2023-07-30T05:11:17;7.80;;;3.55;;
58137;SDS011;43955;47.362;18.930;2023-07-30T05:13:45;3.97;;;2.55;;
58137;SDS011;43955;47.362;18.930;2023-07-30T05:16:13;5.10;;;2.10;;
58137;SDS011;43955;47.362;18.930;2023-07-30T05:18:42;7.15;;;2.35;;
58137;SDS011;43955;47.362;18.930;2023-07-30T05:21:12;4.22;;;2.15;;
58137;SDS011;43955;47.362;18.930;2023-07-30T05:23:39;4.10;;;1.98;;
58137;SDS011;43955;47.362;18.930;2023-07-30T05:26:07;3.20;;;1.80;;
58137;SDS011;43955;47.362;18.930;2023-07-30T05:28:35;3.42;;;2.17;;
58137;SDS011;43955;47.362;18.930;2023-07-30T05:31:03;5.18;;;2.10;;
58137;SDS011;43955;47.362;18.930;2023-07-30T05:33:30;33.17;;;4.35;;
58137;SDS011;43955;47.362;18.930;2023-07-30T05:35:57;5.10;;;2.58;;
58137;SDS011;43955;47.362;18.930;2023-07-30T05:38:24;5.78;;;1.85;;
58137;SDS011;43955;47.362;18.930;2023-07-30T05:40:52;3.25;;;2.10;;
58137;SDS011;43955;47.362;18.930;2023-07-30T05:43:19;8.48;;;2.33;;
58137;SDS011;43955;47.362;18.930;2023-07-30T05:45:46;2.97;;;1.83;;
58137;SDS011;43955;47.362;18.930;2023-07-30T05:48:13;6.35;;;2.42;;
58137;SDS011;43955;47.362;18.930;2023-07-30T05:50:41;4.68;;;2.10;;
58137;SDS011;43955;47.362;18.930;2023-07-30T05:53:08;5.45;;;2.40;;
58137;SDS011;43955;47.362;18.930;2023-07-30T05:55:38;4.10;;;2.70;;
58137;SDS011;43955;47.362;18.930;2023-07-30T05:58:05;4.05;;;2.25;;
58137;SDS011;43955;47.362;18.930;2023-07-30T06:00:32;3.47;;;2.20;;
58137;SDS011;43955;47.362;18.930;2023-07-30T06:03:00;10.40;;;2.70;;
58137;SDS011;43955;47.362;18.930;2023-07-30T06:05:28;4.70;;;2.45;;
58137;SDS011;43955;47.362;18.930;2023-07-30T06:07:55;4.22;;;2.53;;
58137;SDS011;43955;47.362;18.930;2023-07-30T06:10:22;9.10;;;2.58;;
58137;SDS011;43955;47.362;18.930;2023-07-30T06:12:50;8.20;;;2.40;;
58137;SDS011;43955;47.362;18.930;2023-07-30T06:15:17;7.82;;;2.60;;
58137;SDS011;43955;47.362;18.930;2023-07-30T06:17:44;3.78;;;2.20;;
58137;SDS011;43955;47.362;18.930;2023-07-30T06:20:11;8.25;;;2.70;;
58137;SDS011;43955;47.362;18.930;2023-07-30T06:22:39;4.47;;;2.75;;
58137;SDS011;43955;47.362;18.930;2023-07-30T06:25:06;3.75;;;2.45;;
58137;SDS011;43955;47.362;18.930;2023-07-30T06:27:35;8.02;;;2.72;;
58137;SDS011;43955;47.362;18.930;2023-07-30T06:30:04;3.83;;;2.22;;
58137;SDS011;43955;47.362;18.930;2023-07-30T06:32:39;5.10;;;2.33;;
58137;SDS011;43955;47.362;18.930;2023-07-30T06:35:08;4.55;;;2.20;;
58137;SDS011;43955;47.362;18.930;2023-07-30T06:37:36;4.55;;;2.30;;
58137;SDS011;43955;47.362;18.930;2023-07-30T06:40:04;4.78;;;2.10;;
58137;SDS011;43955;47.362;18.930;2023-07-30T06:42:35;5.90;;;2.10;;
58137;SDS011;43955;47.362;18.930;2023-07-30T06:45:02;3.62;;;2.17;;
58137;SDS011;43955;47.362;18.930;2023-07-30T06:47:30;3.60;;;2.10;;
58137;SDS011;43955;47.362;18.930;2023-07-30T06:50:00;5.68;;;2.22;;
58137;SDS011;43955;47.362;18.930;2023-07-30T06:52:28;5.12;;;2.40;;
58137;SDS011;43955;47.362;18.930;2023-07-30T06:54:58;4.20;;;2.40;;
58137;SDS011;43955;47.362;18.930;2023-07-30T06:57:25;5.15;;;4.65;;
58137;SDS011;43955;47.362;18.930;2023-07-30T06:59:53;4.68;;;2.30;;
58137;SDS011;43955;47.362;18.930;2023-07-30T07:02:21;9.38;;;2.20;;
58137;SDS011;43955;47.362;18.930;2023-07-30T07:04:49;3.65;;;2.20;;
58137;SDS011;43955;47.362;18.930;2023-07-30T07:07:17;4.22;;;2.25;;
58137;SDS011;43955;47.362;18.930;2023-07-30T07:09:45;3.90;;;1.90;;
58137;SDS011;43955;47.362;18.930;2023-07-30T07:12:14;4.68;;;2.12;;
58137;SDS011;43955;47.362;18.930;2023-07-30T07:14:42;5.95;;;2.50;;
58137;SDS011;43955;47.362;18.930;2023-07-30T07:17:10;5.50;;;2.10;;
58137;SDS011;43955;47.362;18.930;2023-07-30T07:19:38;4.75;;;2.05;;
58137;SDS011;43955;47.362;18.930;2023-07-30T07:22:06;2.53;;;1.67;;
58137;SDS011;43955;47.362;18.930;2023-07-30T07:24:33;3.22;;;1.70;;
58137;SDS011;43955;47.362;18.930;2023-07-30T07:27:01;5.05;;;2.40;;
58137;SDS011;43955;47.362;18.930;2023-07-30T07:29:29;5.50;;;2.40;;
58137;SDS011;43955;47.362;18.930;2023-07-30T07:31:57;3.17;;;2.15;;
58137;SDS011;43955;47.362;18.930;2023-07-30T07:34:24;3.37;;;2.17;;
58137;SDS011;43955;47.362;18.930;2023-07-30T07:36:55;3.70;;;2.03;;
58137;SDS011;43955;47.362;18.930;2023-07-30T07:39:23;3.55;;;2.12;;
58137;SDS011;43955;47.362;18.930;2023-07-30T07:41:50;4.40;;;2.25;;
58137;SDS011;43955;47.362;18.930;2023-07-30T07:44:19;3.55;;;1.95;;
58137;SDS011;43955;47.362;18.930;2023-07-30T07:46:47;3.87;;;2.05;;
58137;SDS011;43955;47.362;18.930;2023-07-30T07:49:14;4.62;;;2.80;;
58137;SDS011;43955;47.362;18.930;2023-07-30T07:51:42;3.87;;;2.17;;
58137;SDS011;43955;47.362;18.930;2023-07-30T07:54:11;8.07;;;2.10;;
58137;SDS011;43955;47.362;18.930;2023-07-30T07:56:39;2.87;;;1.80;;
58137;SDS011;43955;47.362;18.930;2023-07-30T07:59:07;5.90;;;2.08;;
58137;SDS011;43955;47.362;18.930;2023-07-30T08:01:35;3.75;;;2.08;;
58137;SDS011;43955;47.362;18.930;2023-07-30T08:04:03;4.35;;;2.22;;
58137;SDS011;43955;47.362;18.930;2023-07-30T08:06:33;3.97;;;2.25;;
58137;SDS011;43955;47.362;18.930;2023-07-30T08:09:00;4.32;;;2.37;;
58137;SDS011;43955;47.362;18.930;2023-07-30T08:11:28;4.40;;;2.55;;
58137;SDS011;43955;47.362;18.930;2023-07-30T08:13:57;3.83;;;2.25;;
58137;SDS011;43955;47.362;18.930;2023-07-30T08:16:24;3.60;;;2.05;;
58137;SDS011;43955;47.362;18.930;2023-07-30T08:18:53;4.03;;;2.20;;
58137;SDS011;43955;47.362;18.930;2023-07-30T08:21:22;3.00;;;2.15;;
58137;SDS011;43955;47.362;18.930;2023-07-30T08:23:49;4.35;;;2.05;;
58137;SDS011;43955;47.362;18.930;2023-07-30T08:26:17;2.33;;;1.62;;
58137;SDS011;43955;47.362;18.930;2023-07-30T08:28:46;4.97;;;2.30;;
58137;SDS011;43955;47.362;18.930;2023-07-30T08:31:14;4.60;;;2.40;;
58137;SDS011;43955;47.362;18.930;2023-07-30T08:33:42;3.45;;;1.92;;
58137;SDS011;43955;47.362;18.930;2023-07-30T08:36:10;6.65;;;2.47;;
58137;SDS011;43955;47.362;18.930;2023-07-30T08:38:39;4.72;;;2.72;;
58137;SDS011;43955;47.362;18.930;2023-07-30T08:41:07;4.72;;;2.20;;
58137;SDS011;43955;47.362;18.930;2023-07-30T08:43:35;4.62;;;2.12;;
58137;SDS011;43955;47.362;18.930;2023-07-30T08:46:03;3.33;;;2.20;;
58137;SDS011;43955;47.362;18.930;2023-07-30T08:48:32;3.35;;;2.10;;
58137;SDS011;43955;47.362;18.930;2023-07-30T08:51:01;4.40;;;2.42;;
58137;SDS011;43955;47.362;18.930;2023-07-30T08:53:31;3.70;;;2.10;;
58137;SDS011;43955;47.362;18.930;2023-07-30T08:55:59;4.28;;;2.12;;
58137;SDS011;43955;47.362;18.930;2023-07-30T08:58:28;4.45;;;1.85;;
58137;SDS011;43955;47.362;18.930;2023-07-30T09:00:56;3.70;;;1.70;;
58137;SDS011;43955;47.362;18.930;2023-07-30T09:03:24;3.37;;;2.05;;
58137;SDS011;43955;47.362;18.930;2023-07-30T09:05:55;5.15;;;2.78;;
58137;SDS011;43955;47.362;18.930;2023-07-30T09:08:22;3.12;;;1.83;;
58137;SDS011;43955;47.362;18.930;2023-07-30T09:10:51;3.47;;;1.90;;
58137;SDS011;43955;47.362;18.930;2023-07-30T09:13:21;3.50;;;2.28;;
58137;SDS011;43955;47.362;18.930;2023-07-30T09:15:52;4.97;;;2.17;;
58137;SDS011;43955;47.362;18.930;2023-07-30T09:18:19;5.35;;;2.47;;
58137;SDS011;43955;47.362;18.930;2023-07-30T09:20:46;4.68;;;1.80;;
58137;SDS011;43955;47.362;18.930;2023-07-30T09:23:14;4.00;;;1.73;;
58137;SDS011;43955;47.362;18.930;2023-07-30T09:25:42;4.60;;;2.20;;
58137;SDS011;43955;47.362;18.930;2023-07-30T09:28:10;4.87;;;2.00;;
58137;SDS011;43955;47.362;18.930;2023-07-30T09:30:38;4.10;;;2.17;;
58137;SDS011;43955;47.362;18.930;2023-07-30T09:33:05;2.95;;;1.95;;
58137;SDS011;43955;47.362;18.930;2023-07-30T09:35:32;3.58;;;2.00;;
58137;SDS011;43955;47.362;18.930;2023-07-30T09:38:01;5.37;;;2.85;;
58137;SDS011;43955;47.362;18.930;2023-07-30T09:40:32;4.05;;;2.42;;
58137;SDS011;43955;47.362;18.930;2023-07-30T09:43:02;4.45;;;1.87;;
58137;SDS011;43955;47.362;18.930;2023-07-30T09:45:33;4.47;;;1.60;;
58137;SDS011;43955;47.362;18.930;2023-07-30T09:48:05;3.45;;;2.00;;
58137;SDS011;43955;47.362;18.930;2023-07-30T09:50:33;2.70;;;1.80;;
58137;SDS011;43955;47.362;18.930;2023-07-30T09:53:01;3.40;;;2.05;;
58137;SDS011;43955;47.362;18.930;2023-07-30T09:55:31;3.92;;;2.25;;
58137;SDS011;43955;47.362;18.930;2023-07-30T09:57:59;5.20;;;2.22;;
58137;SDS011;43955;47.362;18.930;2023-07-30T10:00:26;4.30;;;2.30;;
58137;SDS011;43955;47.362;18.930;2023-07-30T10:02:57;3.40;;;2.30;;
58137;SDS011;43955;47.362;18.930;2023-07-30T10:05:27;4.75;;;2.95;;
58137;SDS011;43955;47.362;18.930;2023-07-30T10:07:58;8.50;;;6.12;;
58137;SDS011;43955;47.362;18.930;2023-07-30T10:10:28;9.23;;;7.68;;
58137;SDS011;43955;47.362;18.930;2023-07-30T10:12:59;7.95;;;5.15;;
58137;SDS011;43955;47.362;18.930;2023-07-30T10:15:33;6.62;;;5.35;;
58137;SDS011;43955;47.362;18.930;2023-07-30T10:18:10;5.78;;;3.30;;
58137;SDS011;43955;47.362;18.930;2023-07-30T10:20:37;3.90;;;2.70;;
58137;SDS011;43955;47.362;18.930;2023-07-30T10:23:05;3.50;;;2.50;;
58137;SDS011;43955;47.362;18.930;2023-07-30T10:25:42;4.97;;;2.70;;
58137;SDS011;43955;47.362;18.930;2023-07-30T10:30:59;6.50;;;2.90;;
58137;SDS011;43955;47.362;18.930;2023-07-30T10:33:43;6.20;;;3.53;;
58137;SDS011;43955;47.362;18.930;2023-07-30T10:36:17;4.95;;;2.83;;
58137;SDS011;43955;47.362;18.930;2023-07-30T10:38:45;5.82;;;3.62;;
58137;SDS011;43955;47.362;18.930;2023-07-30T10:41:14;6.03;;;2.78;;
58137;SDS011;43955;47.362;18.930;2023-07-30T10:43:48;4.43;;;2.60;;
58137;SDS011;43955;47.362;18.930;2023-07-30T10:46:17;6.18;;;2.50;;
58137;SDS011;43955;47.362;18.930;2023-07-30T10:48:47;8.57;;;4.15;;
58137;SDS011;43955;47.362;18.930;2023-07-30T10:51:15;6.80;;;3.12;;
58137;SDS011;43955;47.362;18.930;2023-07-30T10:53:44;4.60;;;2.25;;
58137;SDS011;43955;47.362;18.930;2023-07-30T10:56:13;6.68;;;3.40;;
58137;SDS011;43955;47.362;18.930;2023-07-30T10:58:41;6.30;;;3.58;;
58137;SDS011;43955;47.362;18.930;2023-07-30T11:01:10;3.55;;;2.60;;
58137;SDS011;43955;47.362;18.930;2023-07-30T11:03:37;3.53;;;2.10;;
58137;SDS011;43955;47.362;18.930;2023-07-30T11:06:05;3.62;;;2.25;;
58137;SDS011;43955;47.362;18.930;2023-07-30T11:08:37;3.33;;;2.33;;
58137;SDS011;43955;47.362;18.930;2023-07-30T11:11:06;4.75;;;2.60;;
58137;SDS011;43955;47.362;18.930;2023-07-30T11:16:05;5.57;;;2.60;;
58137;SDS011;43955;47.362;18.930;2023-07-30T11:18:35;5.00;;;2.65;;
58137;SDS011;43955;47.362;18.930;2023-07-30T11:21:07;3.40;;;2.78;;
58137;SDS011;43955;47.362;18.930;2023-07-30T11:26:06;4.32;;;2.40;;
58137;SDS011;43955;47.362;18.930;2023-07-30T11:28:36;5.82;;;2.90;;
58137;SDS011;43955;47.362;18.930;2023-07-30T11:33:36;6.15;;;2.70;;
58137;SDS011;43955;47.362;18.930;2023-07-30T11:36:07;5.20;;;2.85;;
58137;SDS011;43955;47.362;18.930;2023-07-30T11:38:36;3.42;;;2.00;;
58137;SDS011;43955;47.362;18.930;2023-07-30T11:41:06;4.18;;;2.45;;
58137;SDS011;43955;47.362;18.930;2023-07-30T11:43:39;4.90;;;2.37;;
58137;SDS011;43955;47.362;18.930;2023-07-30T11:46:16;3.87;;;2.40;;
58137;SDS011;43955;47.362;18.930;2023-07-30T11:48:45;4.70;;;2.72;;
58137;SDS011;43955;47.362;18.930;2023-07-30T11:51:23;3.42;;;2.53;;
58137;SDS011;43955;47.362;18.930;2023-07-30T11:53:53;4.40;;;2.47;;
58137;SDS011;43955;47.362;18.930;2023-07-30T11:56:23;5.90;;;2.83;;
58137;SDS011;43955;47.362;18.930;2023-07-30T11:58:57;4.55;;;2.97;;
58137;SDS011;43955;47.362;18.930;2023-07-30T12:01:26;4.97;;;2.37;;
58137;SDS011;43955;47.362;18.930;2023-07-30T12:03:58;4.40;;;2.87;;
58137;SDS011;43955;47.362;18.930;2023-07-30T12:06:40;3.97;;;2.47;;
58137;SDS011;43955;47.362;18.930;2023-07-30T12:14:18;5.97;;;2.60;;
58137;SDS011;43955;47.362;18.930;2023-07-30T12:16:47;4.28;;;3.17;;
58137;SDS011;43955;47.362;18.930;2023-07-30T12:19:15;3.72;;;2.35;;
58137;SDS011;43955;47.362;18.930;2023-07-30T12:21:43;3.78;;;2.33;;
58137;SDS011;43955;47.362;18.930;2023-07-30T12:24:11;2.62;;;1.40;;
58137;SDS011;43955;47.362;18.930;2023-07-30T12:26:39;4.87;;;1.52;;
58137;SDS011;43955;47.362;18.930;2023-07-30T12:29:07;2.70;;;1.70;;
58137;SDS011;43955;47.362;18.930;2023-07-30T12:31:36;2.78;;;1.60;;
58137;SDS011;43955;47.362;18.930;2023-07-30T12:34:04;3.55;;;1.70;;
58137;SDS011;43955;47.362;18.930;2023-07-30T12:36:34;3.60;;;1.52;;
58137;SDS011;43955;47.362;18.930;2023-07-30T12:39:02;2.45;;;1.50;;
58137;SDS011;43955;47.362;18.930;2023-07-30T12:41:30;2.95;;;1.62;;
58137;SDS011;43955;47.362;18.930;2023-07-30T12:43:59;1.98;;;1.05;;
58137;SDS011;43955;47.362;18.930;2023-07-30T12:46:27;2.30;;;1.23;;
58137;SDS011;43955;47.362;18.930;2023-07-30T12:48:58;2.30;;;1.37;;
58137;SDS011;43955;47.362;18.930;2023-07-30T12:51:32;2.50;;;1.55;;
58137;SDS011;43955;47.362;18.930;2023-07-30T12:54:01;2.22;;;1.42;;
58137;SDS011;43955;47.362;18.930;2023-07-30T12:56:29;2.80;;;1.40;;
58137;SDS011;43955;47.362;18.930;2023-07-30T12:58:57;2.40;;;1.50;;
58137;SDS011;43955;47.362;18.930;2023-07-30T13:01:25;3.12;;;1.55;;
58137;SDS011;43955;47.362;18.930;2023-07-30T13:03:52;3.25;;;1.60;;
58137;SDS011;43955;47.362;18.930;2023-07-30T13:06:21;2.20;;;1.30;;
58137;SDS011;43955;47.362;18.930;2023-07-30T13:08:49;2.33;;;1.30;;
58137;SDS011;43955;47.362;18.930;2023-07-30T13:11:17;2.03;;;1.10;;
58137;SDS011;43955;47.362;18.930;2023-07-30T13:13:44;1.90;;;1.20;;
58137;SDS011;43955;47.362;18.930;2023-07-30T13:16:13;1.70;;;1.02;;
58137;SDS011;43955;47.362;18.930;2023-07-30T13:18:40;3.95;;;1.48;;
58137;SDS011;43955;47.362;18.930;2023-07-30T13:21:07;2.85;;;1.30;;
58137;SDS011;43955;47.362;18.930;2023-07-30T13:23:35;2.67;;;1.20;;
58137;SDS011;43955;47.362;18.930;2023-07-30T13:26:03;3.45;;;1.52;;
58137;SDS011;43955;47.362;18.930;2023-07-30T13:28:30;4.18;;;1.17;;
58137;SDS011;43955;47.362;18.930;2023-07-30T13:30:58;3.70;;;1.23;;
58137;SDS011;43955;47.362;18.930;2023-07-30T13:33:26;2.58;;;1.40;;
58137;SDS011;43955;47.362;18.930;2023-07-30T13:35:53;2.28;;;1.20;;
58137;SDS011;43955;47.362;18.930;2023-07-30T13:38:20;2.45;;;1.10;;
58137;SDS011;43955;47.362;18.930;2023-07-30T13:40:50;3.75;;;1.42;;
58137;SDS011;43955;47.362;18.930;2023-07-30T13:43:17;2.55;;;1.20;;
58137;SDS011;43955;47.362;18.930;2023-07-30T13:45:45;2.40;;;1.40;;
58137;SDS011;43955;47.362;18.930;2023-07-30T13:48:18;2.40;;;1.30;;
58137;SDS011;43955;47.362;18.930;2023-07-30T13:50:47;2.85;;;1.40;;
58137;SDS011;43955;47.362;18.930;2023-07-30T13:53:14;2.70;;;1.50;;
58137;SDS011;43955;47.362;18.930;2023-07-30T13:55:41;2.47;;;1.30;;
58137;SDS011;43955;47.362;18.930;2023-07-30T13:58:08;2.72;;;1.33;;
58137;SDS011;43955;47.362;18.930;2023-07-30T14:00:36;2.30;;;1.50;;
58137;SDS011;43955;47.362;18.930;2023-07-30T14:03:03;4.43;;;1.30;;
58137;SDS011;43955;47.362;18.930;2023-07-30T14:05:32;2.75;;;1.50;;
58137;SDS011;43955;47.362;18.930;2023-07-30T14:07:59;2.47;;;1.50;;
58137;SDS011;43955;47.362;18.930;2023-07-30T14:10:27;1.87;;;1.25;;
58137;SDS011;43955;47.362;18.930;2023-07-30T14:12:55;3.62;;;1.65;;
58137;SDS011;43955;47.362;18.930;2023-07-30T14:15:22;2.22;;;1.40;;
58137;SDS011;43955;47.362;18.930;2023-07-30T14:17:51;2.47;;;1.27;;
58137;SDS011;43955;47.362;18.930;2023-07-30T14:20:20;3.22;;;1.58;;
58137;SDS011;43955;47.362;18.930;2023-07-30T14:22:47;1.90;;;1.20;;
58137;SDS011;43955;47.362;18.930;2023-07-30T14:25:16;7.72;;;1.50;;
58137;SDS011;43955;47.362;18.930;2023-07-30T14:27:44;1.98;;;1.33;;
58137;SDS011;43955;47.362;18.930;2023-07-30T14:30:11;2.28;;;1.30;;
58137;SDS011;43955;47.362;18.930;2023-07-30T14:32:43;2.28;;;1.45;;
58137;SDS011;43955;47.362;18.930;2023-07-30T14:35:11;2.55;;;1.20;;
58137;SDS011;43955;47.362;18.930;2023-07-30T14:37:39;3.20;;;1.52;;
58137;SDS011;43955;47.362;18.930;2023-07-30T14:40:08;3.97;;;1.37;;
58137;SDS011;43955;47.362;18.930;2023-07-30T14:42:36;2.72;;;1.50;;
58137;SDS011;43955;47.362;18.930;2023-07-30T14:45:03;2.75;;;1.27;;
58137;SDS011;43955;47.362;18.930;2023-07-30T14:47:32;3.25;;;1.48;;
58137;SDS011;43955;47.362;18.930;2023-07-30T14:50:01;2.72;;;1.60;;
58137;SDS011;43955;47.362;18.930;2023-07-30T14:52:30;2.47;;;1.50;;
58137;SDS011;43955;47.362;18.930;2023-07-30T14:54:58;3.47;;;1.30;;
58137;SDS011;43955;47.362;18.930;2023-07-30T14:57:26;2.78;;;1.20;;